createdAt,value
2019-03-29T00:01:37.206Z,56.20
2019-03-29T00:04:03.953Z,56.50
2019-03-29T00:06:30.702Z,56.20
2019-03-29T00:08:57.503Z,56.60
2019-03-29T00:11:24.241Z,56.80
2019-03-29T00:13:50.993Z,56.20
2019-03-29T00:16:17.749Z,56.20
2019-03-29T00:18:44.483Z,56.60
2019-03-29T00:21:11.301Z,56.70
2019-03-29T00:23:38.033Z,57.00
2019-03-29T00:26:04.779Z,56.70
2019-03-29T00:28:31.569Z,57.10
2019-03-29T00:30:58.293Z,56.90
2019-03-29T00:33:25.006Z,57.10
2019-03-29T00:35:51.996Z,56.90
2019-03-29T00:38:18.744Z,57.00
2019-03-29T00:40:45.463Z,57.10
2019-03-29T00:43:12.239Z,56.80
2019-03-29T00:45:38.973Z,56.80
2019-03-29T00:48:05.780Z,56.80
2019-03-29T00:50:33.050Z,57.10
2019-03-29T00:52:59.853Z,56.80
2019-03-29T00:55:26.618Z,56.70
2019-03-29T00:57:53.333Z,56.80
2019-03-29T01:00:20.262Z,57.00
2019-03-29T01:02:47.192Z,57.00
2019-03-29T01:05:14.044Z,57.20
2019-03-29T01:07:40.778Z,57.80
2019-03-29T01:10:08.599Z,57.90
2019-03-29T01:12:35.342Z,57.80
2019-03-29T01:15:04.752Z,57.50
2019-03-29T01:17:31.518Z,57.00
2019-03-29T01:19:58.230Z,56.90
2019-03-29T01:22:24.962Z,56.80
2019-03-29T01:24:51.784Z,57.30
2019-03-29T01:27:19.197Z,57.60
2019-03-29T01:29:46.229Z,57.70
2019-03-29T01:32:12.954Z,57.70
2019-03-29T01:34:39.698Z,57.40
2019-03-29T01:37:06.483Z,57.50
2019-03-29T01:39:33.220Z,57.70
2019-03-29T01:42:00.019Z,57.70
2019-03-29T01:44:27.929Z,57.80
2019-03-29T01:46:54.814Z,58.30
2019-03-29T01:49:21.615Z,58.40
2019-03-29T01:51:48.343Z,58.10
2019-03-29T01:54:15.087Z,58.10
2019-03-29T01:56:41.920Z,58.40
2019-03-29T01:59:08.653Z,58.00
2019-03-29T02:01:35.391Z,58.10
2019-03-29T02:04:05.516Z,58.30
2019-03-29T02:06:30.765Z,58.20
2019-03-29T02:08:57.510Z,58.30
2019-03-29T02:11:24.323Z,58.40
2019-03-29T02:13:51.261Z,58.30
2019-03-29T02:16:18.692Z,58.10
2019-03-29T02:18:45.495Z,58.30
2019-03-29T02:21:12.523Z,58.50
2019-03-29T02:23:39.275Z,58.60
2019-03-29T02:26:06.084Z,58.60
2019-03-29T02:28:32.805Z,58.20
2019-03-29T02:30:59.776Z,58.30
2019-03-29T02:33:26.940Z,58.30
2019-03-29T02:35:53.780Z,58.50
2019-03-29T02:38:20.566Z,58.80
2019-03-29T02:40:47.299Z,59.00
2019-03-29T02:43:14.349Z,59.20
2019-03-29T02:45:41.143Z,59.30
2019-03-29T02:48:08.380Z,58.90
2019-03-29T02:50:36.661Z,58.90
2019-03-29T02:53:03.638Z,59.10
2019-03-29T02:55:30.357Z,59.20
2019-03-29T02:57:57.111Z,59.00
2019-03-29T03:00:23.877Z,59.00
2019-03-29T03:02:50.621Z,59.20
2019-03-29T03:05:17.510Z,58.80
2019-03-29T03:07:44.652Z,59.70
2019-03-29T03:10:12.568Z,59.20
2019-03-29T03:12:39.343Z,59.40
2019-03-29T03:15:08.478Z,59.50
2019-03-29T03:17:35.918Z,59.60
2019-03-29T03:20:07.853Z,59.50
2019-03-29T03:22:34.600Z,59.70
2019-03-29T03:25:01.396Z,59.70
2019-03-29T03:27:28.140Z,59.90
2019-03-29T03:29:57.867Z,59.60
2019-03-29T03:32:24.652Z,59.70
2019-03-29T03:34:51.509Z,59.10
2019-03-29T03:37:18.372Z,59.10
2019-03-29T03:39:45.118Z,59.20
2019-03-29T03:42:12.734Z,59.30
2019-03-29T03:44:39.522Z,59.40
2019-03-29T03:47:06.260Z,60.10
2019-03-29T03:49:33.002Z,60.10
2019-03-29T03:51:59.992Z,60.10
2019-03-29T03:54:26.828Z,60.10
2019-03-29T03:56:54.168Z,60.30
2019-03-29T03:59:23.886Z,59.50
2019-03-29T04:01:50.620Z,59.60
2019-03-29T04:04:17.408Z,59.80
2019-03-29T04:06:44.165Z,60.00
2019-03-29T04:09:10.908Z,60.60
2019-03-29T04:11:37.783Z,60.70
2019-03-29T04:14:04.594Z,59.80
2019-03-29T04:16:31.361Z,59.70
2019-03-29T04:18:58.251Z,59.60
2019-03-29T04:21:25.002Z,60.00
2019-03-29T04:23:51.769Z,59.60
2019-03-29T04:26:18.658Z,59.80
2019-03-29T04:28:56.999Z,59.40
2019-03-29T04:31:14.025Z,59.60
2019-03-29T04:33:40.813Z,59.80
2019-03-29T04:36:07.553Z,59.80
2019-03-29T04:38:34.279Z,60.20
2019-03-29T04:41:02.153Z,60.30
2019-03-29T04:43:28.877Z,60.00
2019-03-29T04:45:56.908Z,60.50
2019-03-29T04:48:23.646Z,60.40
2019-03-29T04:50:50.381Z,60.40
2019-03-29T04:53:19.734Z,60.40
2019-03-29T04:55:46.406Z,61.00
2019-03-29T04:58:13.243Z,61.20
2019-03-29T05:00:40.033Z,60.60
2019-03-29T05:03:06.768Z,60.50
2019-03-29T05:05:33.559Z,60.70
2019-03-29T05:08:00.358Z,60.90
2019-03-29T05:10:27.100Z,60.40
2019-03-29T05:12:53.830Z,61.00
2019-03-29T05:15:20.595Z,60.70
2019-03-29T05:17:47.341Z,61.20
2019-03-29T05:20:14.077Z,60.70
2019-03-29T05:22:40.869Z,60.80
2019-03-29T05:25:27.366Z,61.40
2019-03-29T05:27:54.186Z,61.20
2019-03-29T05:30:20.903Z,61.20
2019-03-29T05:32:47.647Z,60.50
2019-03-29T05:35:14.440Z,60.50
2019-03-29T05:37:41.178Z,60.70
2019-03-29T05:40:08.736Z,60.80
2019-03-29T05:42:35.477Z,60.90
2019-03-29T05:45:05.432Z,60.50
2019-03-29T05:47:32.215Z,59.80
2019-03-29T05:49:58.959Z,60.00
2019-03-29T05:52:25.739Z,59.60
2019-03-29T05:54:52.471Z,60.40
2019-03-29T05:57:19.201Z,60.60
2019-03-29T05:59:46.096Z,60.70
2019-03-29T06:02:12.832Z,60.70
2019-03-29T06:04:39.575Z,60.80
2019-03-29T06:07:06.382Z,60.90
2019-03-29T06:09:34.968Z,60.40
2019-03-29T06:12:01.711Z,60.20
2019-03-29T06:14:28.469Z,60.60
2019-03-29T06:16:55.240Z,61.00
2019-03-29T06:19:22.010Z,60.00
2019-03-29T06:21:48.737Z,60.10
2019-03-29T06:24:15.488Z,60.30
2019-03-29T06:26:42.265Z,60.70
2019-03-29T06:29:09.013Z,60.90
2019-03-29T06:31:35.820Z,60.50
2019-03-29T06:34:02.584Z,59.80
2019-03-29T06:36:30.724Z,59.60
2019-03-29T06:38:59.320Z,59.70
2019-03-29T06:41:26.069Z,59.50
2019-03-29T06:43:52.786Z,59.20
2019-03-29T06:46:19.615Z,58.90
2019-03-29T06:48:46.361Z,58.30
2019-03-29T06:51:13.116Z,57.70
2019-03-29T06:53:39.934Z,57.30
2019-03-29T06:56:06.733Z,57.30
2019-03-29T06:58:33.424Z,57.60
2019-03-29T07:01:00.298Z,57.30
2019-03-29T07:03:27.042Z,57.00
2019-03-29T07:05:53.882Z,56.90
2019-03-29T07:08:20.696Z,57.20
2019-03-29T07:10:47.478Z,57.80
2019-03-29T07:13:14.278Z,57.60
2019-03-29T07:15:41.021Z,57.40
2019-03-29T07:18:07.752Z,56.50
2019-03-29T07:20:34.550Z,56.20
2019-03-29T07:23:01.301Z,56.10
2019-03-29T07:25:28.092Z,56.00
2019-03-29T07:27:54.839Z,56.60
2019-03-29T07:30:21.572Z,56.20
2019-03-29T07:32:48.373Z,56.30
2019-03-29T07:35:15.105Z,55.70
2019-03-29T07:37:41.918Z,55.40
2019-03-29T07:40:09.149Z,55.30
2019-03-29T07:42:35.907Z,55.00
2019-03-29T07:45:05.445Z,54.70
2019-03-29T07:47:32.199Z,54.50
2019-03-29T07:49:58.947Z,53.80
2019-03-29T07:52:25.734Z,53.20
2019-03-29T07:54:52.486Z,52.90
2019-03-29T07:57:19.278Z,52.50
2019-03-29T07:59:46.030Z,52.40
2019-03-29T08:02:12.764Z,52.40
2019-03-29T08:04:39.586Z,52.90
2019-03-29T08:07:06.643Z,52.40
2019-03-29T08:09:33.529Z,52.10
2019-03-29T08:12:00.315Z,53.00
2019-03-29T08:14:27.062Z,52.40
2019-03-29T08:16:53.888Z,52.00
2019-03-29T08:19:20.626Z,52.30
2019-03-29T08:21:47.367Z,51.60
2019-03-29T08:24:14.161Z,51.40
2019-03-29T08:26:41.025Z,51.40
2019-03-29T08:29:07.824Z,50.90
2019-03-29T08:31:34.576Z,50.80
2019-03-29T08:34:01.511Z,50.10
2019-03-29T08:36:28.322Z,49.90
2019-03-29T08:38:55.116Z,49.40
2019-03-29T08:41:21.925Z,49.60
2019-03-29T08:43:48.686Z,49.40
2019-03-29T08:46:15.420Z,48.20
2019-03-29T08:48:42.260Z,47.50
2019-03-29T08:51:09.021Z,46.60
2019-03-29T08:53:35.787Z,45.70
2019-03-29T08:56:02.648Z,45.80
2019-03-29T08:58:29.401Z,45.60
2019-03-29T09:00:56.129Z,44.60
2019-03-29T09:03:23.937Z,44.70
2019-03-29T09:05:50.872Z,44.30
2019-03-29T09:08:17.627Z,45.20
2019-03-29T09:10:44.452Z,45.20
2019-03-29T09:13:11.199Z,43.80
2019-03-29T09:15:38.017Z,43.40
2019-03-29T09:18:04.772Z,44.20
2019-03-29T09:20:34.294Z,43.50
2019-03-29T09:23:00.136Z,43.30
2019-03-29T09:25:26.893Z,43.80
2019-03-29T09:27:53.706Z,43.70
2019-03-29T09:30:20.544Z,44.00
2019-03-29T09:32:50.905Z,43.50
2019-03-29T09:35:15.897Z,43.10
2019-03-29T09:37:42.640Z,43.90
2019-03-29T09:40:09.583Z,43.50
2019-03-29T09:42:36.491Z,43.30
2019-03-29T09:45:06.246Z,42.30
2019-03-29T09:47:38.564Z,41.00
2019-03-29T09:50:03.272Z,40.70
2019-03-29T09:52:30.018Z,42.00
2019-03-29T09:54:56.823Z,40.90
2019-03-29T09:57:36.997Z,41.40
2019-03-29T09:59:52.155Z,42.20
2019-03-29T10:02:18.984Z,39.30
2019-03-29T10:04:45.714Z,40.30
2019-03-29T10:07:12.491Z,40.30
2019-03-29T10:09:39.362Z,38.70
2019-03-29T10:12:06.157Z,39.10
2019-03-29T10:14:33.824Z,39.40
2019-03-29T10:17:00.625Z,39.10
2019-03-29T10:19:27.377Z,39.40
2019-03-29T10:21:54.131Z,39.60
2019-03-29T10:24:20.926Z,39.80
2019-03-29T10:26:47.669Z,40.80
2019-03-29T10:29:14.480Z,39.50
2019-03-29T10:31:41.301Z,41.80
2019-03-29T10:34:08.042Z,39.00
2019-03-29T10:36:34.808Z,37.30
2019-03-29T10:39:01.673Z,38.20
2019-03-29T10:41:28.449Z,35.80
2019-03-29T10:43:55.248Z,34.00
2019-03-29T10:46:21.987Z,31.50
2019-03-29T10:48:48.725Z,29.30
2019-03-29T10:51:15.554Z,29.50
2019-03-29T10:53:42.313Z,28.70
2019-03-29T10:56:09.067Z,27.40
2019-03-29T10:58:35.867Z,25.70
2019-03-29T11:01:03.124Z,25.80
2019-03-29T11:03:29.929Z,26.00
2019-03-29T11:05:56.738Z,25.70
2019-03-29T11:08:23.494Z,26.10
2019-03-29T11:10:50.246Z,25.00
2019-03-29T11:13:17.091Z,25.80
2019-03-29T11:15:43.852Z,25.10
2019-03-29T11:18:11.245Z,25.10
2019-03-29T11:20:38.052Z,23.50
2019-03-29T11:23:04.826Z,24.10
2019-03-29T11:25:31.645Z,25.60
2019-03-29T11:27:58.368Z,24.00
2019-03-29T11:30:25.136Z,24.80
2019-03-29T11:32:51.941Z,24.20
2019-03-29T11:35:18.684Z,24.40
2019-03-29T11:37:45.448Z,24.00
2019-03-29T11:40:12.687Z,24.60
2019-03-29T11:42:39.444Z,23.70
2019-03-29T11:45:08.263Z,23.90
2019-03-29T11:47:35.081Z,23.70
2019-03-29T11:50:02.620Z,22.50
2019-03-29T11:52:29.379Z,22.80
2019-03-29T11:54:56.278Z,22.90
2019-03-29T11:57:23.049Z,22.70
2019-03-29T11:59:49.888Z,22.60
2019-03-29T12:02:30.184Z,22.20
2019-03-29T12:04:45.269Z,21.30
2019-03-29T12:07:12.304Z,21.10
2019-03-29T12:09:39.054Z,20.90
2019-03-29T12:12:05.802Z,22.80
2019-03-29T12:14:32.672Z,22.20
2019-03-29T12:17:00.123Z,21.80
2019-03-29T12:19:26.880Z,21.00
2019-03-29T12:21:53.673Z,20.70
2019-03-29T12:24:20.501Z,21.30
2019-03-29T12:26:47.324Z,22.10
2019-03-29T12:29:14.049Z,22.40
2019-03-29T12:31:40.806Z,22.70
2019-03-29T12:34:07.648Z,21.70
2019-03-29T12:36:34.517Z,22.60
2019-03-29T12:39:05.754Z,22.40
2019-03-29T12:41:32.548Z,21.60
2019-03-29T12:43:59.286Z,21.20
2019-03-29T12:46:26.034Z,21.40
2019-03-29T12:48:52.812Z,21.10
2019-03-29T12:51:19.578Z,20.70
2019-03-29T12:53:46.381Z,21.00
2019-03-29T12:56:13.128Z,21.20
2019-03-29T12:58:39.876Z,21.50
2019-03-29T13:01:06.701Z,21.00
2019-03-29T13:03:33.443Z,20.40
2019-03-29T13:06:00.230Z,21.50
2019-03-29T13:08:27.012Z,21.60
2019-03-29T13:10:54.090Z,20.90
2019-03-29T13:13:20.913Z,22.20
2019-03-29T13:15:47.712Z,20.20
2019-03-29T13:18:14.655Z,21.10
2019-03-29T13:20:41.457Z,21.90
2019-03-29T13:23:08.191Z,20.80
2019-03-29T13:25:35.003Z,21.10
2019-03-29T13:28:01.777Z,21.10
2019-03-29T13:30:28.537Z,20.10
2019-03-29T13:32:55.336Z,20.90
2019-03-29T13:35:22.107Z,21.20
2019-03-29T13:37:48.879Z,20.50
2019-03-29T13:40:15.770Z,22.20
2019-03-29T13:42:42.536Z,26.30
2019-03-29T13:45:09.328Z,22.40
2019-03-29T13:47:36.601Z,21.90
2019-03-29T13:50:07.515Z,23.50
2019-03-29T13:52:34.264Z,22.20
2019-03-29T13:55:01.054Z,20.10
2019-03-29T13:57:27.845Z,21.70
2019-03-29T13:59:54.782Z,21.40
2019-03-29T14:02:21.545Z,21.40
2019-03-29T14:04:48.297Z,21.00
2019-03-29T14:07:15.029Z,21.10
2019-03-29T14:09:41.889Z,21.90
2019-03-29T14:12:08.643Z,21.00
2019-03-29T14:14:38.468Z,23.20
2019-03-29T14:17:03.999Z,25.00
2019-03-29T14:19:30.772Z,25.90
2019-03-29T14:21:57.635Z,22.20
2019-03-29T14:24:24.411Z,21.90
2019-03-29T14:26:51.132Z,22.80
2019-03-29T14:29:17.945Z,24.80
2019-03-29T14:31:44.710Z,26.00
2019-03-29T14:34:11.433Z,26.80
2019-03-29T14:36:38.238Z,27.10
2019-03-29T14:39:05.890Z,27.60
2019-03-29T14:41:34.618Z,26.70
2019-03-29T14:44:01.423Z,28.30
2019-03-29T14:46:28.194Z,28.60
2019-03-29T14:48:55.104Z,29.10
2019-03-29T14:51:21.918Z,29.20
2019-03-29T14:53:48.663Z,27.10
2019-03-29T14:56:15.475Z,28.60
2019-03-29T14:58:42.220Z,26.60
2019-03-29T15:01:09.125Z,29.10
2019-03-29T15:03:35.898Z,28.20
2019-03-29T15:06:02.872Z,27.10
2019-03-29T15:08:29.970Z,28.00
2019-03-29T15:11:00.048Z,26.20
2019-03-29T15:13:26.799Z,26.90
2019-03-29T15:15:53.867Z,26.60
2019-03-29T15:18:21.025Z,27.00
2019-03-29T15:20:53.574Z,27.80
2019-03-29T15:23:16.592Z,28.00
2019-03-29T15:25:43.369Z,28.70
2019-03-29T15:28:10.153Z,28.70
2019-03-29T15:30:37.061Z,28.40
2019-03-29T15:33:03.842Z,28.50
2019-03-29T15:35:30.627Z,28.70
2019-03-29T15:37:57.485Z,26.80
2019-03-29T15:40:24.332Z,26.10
2019-03-29T15:42:51.081Z,26.60
2019-03-29T15:45:20.712Z,27.20
2019-03-29T15:47:46.683Z,27.70
2019-03-29T15:50:13.583Z,27.70
2019-03-29T15:52:40.446Z,28.20
2019-03-29T15:55:07.657Z,26.80
2019-03-29T15:57:34.546Z,27.40
2019-03-29T16:00:01.343Z,26.40
2019-03-29T16:02:28.079Z,26.50
2019-03-29T16:04:55.094Z,26.80
2019-03-29T16:07:21.986Z,28.00
2019-03-29T16:09:48.718Z,28.30
2019-03-29T16:12:15.528Z,28.40
2019-03-29T16:14:42.293Z,28.80
2019-03-29T16:17:09.210Z,29.50
2019-03-29T16:19:36.472Z,29.90
2019-03-29T16:22:05.908Z,31.10
2019-03-29T16:24:31.881Z,32.10
2019-03-29T16:26:58.704Z,33.40
2019-03-29T16:29:25.493Z,34.50
2019-03-29T16:31:53.633Z,33.30
2019-03-29T16:34:20.320Z,34.30
2019-03-29T16:36:47.178Z,35.70
2019-03-29T16:39:14.025Z,36.30
2019-03-29T16:41:40.803Z,36.90
2019-03-29T16:44:07.657Z,38.70
2019-03-29T16:46:37.609Z,38.40
2019-03-29T16:49:04.348Z,37.40
2019-03-29T16:51:31.667Z,38.80
2019-03-29T16:53:58.444Z,39.30
2019-03-29T16:56:25.293Z,40.10
2019-03-29T16:58:52.082Z,40.40
2019-03-29T17:01:18.861Z,40.70
2019-03-29T17:03:45.710Z,41.10
2019-03-29T17:06:12.512Z,42.50
2019-03-29T17:08:39.364Z,42.20
2019-03-29T17:11:06.201Z,42.40
2019-03-29T17:13:32.985Z,42.10
2019-03-29T17:16:02.158Z,43.20
2019-03-29T17:18:29.414Z,42.90
2019-03-29T17:20:56.695Z,42.80
2019-03-29T17:23:23.504Z,42.70
2019-03-29T17:25:50.248Z,42.20
2019-03-29T17:28:16.991Z,43.30
2019-03-29T17:30:43.771Z,42.70
2019-03-29T17:33:10.512Z,42.10
2019-03-29T17:35:37.370Z,43.60
2019-03-29T17:38:04.590Z,44.10
2019-03-29T17:40:31.383Z,44.60
2019-03-29T17:42:58.311Z,44.80
2019-03-29T17:45:25.101Z,44.30
2019-03-29T17:47:51.854Z,44.40
2019-03-29T17:50:18.667Z,44.40
2019-03-29T17:52:45.463Z,44.70
2019-03-29T17:55:12.396Z,45.60
2019-03-29T17:57:39.128Z,45.30
2019-03-29T18:00:07.577Z,45.70
2019-03-29T18:02:34.439Z,46.00
2019-03-29T18:05:01.181Z,45.30
2019-03-29T18:07:27.964Z,44.60
2019-03-29T18:09:54.806Z,45.90
2019-03-29T18:12:21.538Z,45.60
2019-03-29T18:14:48.327Z,46.10
2019-03-29T18:17:15.092Z,46.10
2019-03-29T18:19:41.924Z,46.10
2019-03-29T18:22:08.738Z,46.40
2019-03-29T18:24:35.497Z,46.60
2019-03-29T18:27:02.293Z,46.80
2019-03-29T18:29:29.096Z,46.30
2019-03-29T18:31:55.967Z,46.00
2019-03-29T18:34:23.996Z,46.40
2019-03-29T18:36:52.685Z,46.80
2019-03-29T18:39:20.865Z,47.30
2019-03-29T18:41:47.664Z,47.70
2019-03-29T18:44:14.414Z,47.70
2019-03-29T18:46:44.767Z,47.20
2019-03-29T18:49:09.798Z,47.20
2019-03-29T18:51:36.541Z,47.10
2019-03-29T18:54:03.626Z,47.60
2019-03-29T18:56:30.470Z,47.60
2019-03-29T18:58:57.200Z,47.70
2019-03-29T19:01:25.855Z,48.10
2019-03-29T19:03:52.843Z,48.60
2019-03-29T19:06:19.627Z,48.70
2019-03-29T19:08:49.985Z,49.10
2019-03-29T19:11:16.732Z,47.80
2019-03-29T19:13:43.542Z,48.10
2019-03-29T19:16:10.325Z,48.40
2019-03-29T19:18:37.049Z,48.80
2019-03-29T19:21:03.991Z,48.80
2019-03-29T19:23:30.731Z,48.50
2019-03-29T19:25:57.506Z,49.70
2019-03-29T19:28:24.294Z,49.20
2019-03-29T19:30:51.069Z,48.90
2019-03-29T19:33:17.796Z,49.20
2019-03-29T19:35:44.610Z,49.70
2019-03-29T19:38:11.378Z,48.70
2019-03-29T19:40:38.260Z,48.60
2019-03-29T19:43:05.117Z,49.00
2019-03-29T19:45:34.287Z,49.70
2019-03-29T19:48:00.428Z,50.10
2019-03-29T19:50:27.215Z,50.10
2019-03-29T19:52:53.939Z,49.80
2019-03-29T19:55:20.761Z,49.60
2019-03-29T19:57:47.516Z,49.80
2019-03-29T20:00:14.882Z,50.10
2019-03-29T20:02:45.513Z,50.10
2019-03-29T20:05:24.884Z,49.60
2019-03-29T20:07:52.915Z,50.30
2019-03-29T20:10:19.702Z,50.50
2019-03-29T20:12:46.588Z,50.70
2019-03-29T20:15:13.399Z,51.10
2019-03-29T20:17:40.189Z,51.40
2019-03-29T20:20:07.047Z,51.30
2019-03-29T20:22:33.888Z,51.30
2019-03-29T20:25:00.665Z,51.40
2019-03-29T20:27:27.480Z,51.30
2019-03-29T20:29:54.250Z,51.30
2019-03-29T20:32:21.000Z,51.00
2019-03-29T20:34:47.808Z,51.50
2019-03-29T20:37:14.572Z,51.50
2019-03-29T20:39:41.386Z,51.70
2019-03-29T20:42:08.155Z,52.40
2019-03-29T20:44:34.936Z,52.10
2019-03-29T20:47:01.778Z,52.20
2019-03-29T20:49:28.543Z,52.50
2019-03-29T20:51:55.270Z,52.40
2019-03-29T20:54:22.111Z,52.70
2019-03-29T20:56:48.896Z,52.90
2019-03-29T20:59:15.640Z,52.80
2019-03-29T21:01:42.414Z,52.70
2019-03-29T21:04:09.197Z,53.00
2019-03-29T21:06:36.021Z,52.50
2019-03-29T21:09:06.000Z,53.50
2019-03-29T21:11:32.721Z,53.30
2019-03-29T21:13:59.536Z,53.60
2019-03-29T21:16:26.307Z,53.50
2019-03-29T21:18:53.149Z,53.70
2019-03-29T21:21:19.929Z,53.40
2019-03-29T21:23:47.360Z,53.40
2019-03-29T21:26:14.272Z,53.70
2019-03-29T21:28:41.051Z,53.20
2019-03-29T21:31:07.828Z,52.80
2019-03-29T21:33:34.676Z,53.10
2019-03-29T21:36:01.417Z,53.70
2019-03-29T21:38:28.192Z,53.70
2019-03-29T21:40:54.999Z,53.40
2019-03-29T21:43:21.739Z,53.40
2019-03-29T21:45:48.590Z,53.70
2019-03-29T21:48:28.762Z,53.70
2019-03-29T21:50:43.932Z,53.70
2019-03-29T21:53:10.775Z,54.10
2019-03-29T21:55:37.549Z,53.90
2019-03-29T21:58:04.335Z,53.40
2019-03-29T22:00:31.152Z,53.50
2019-03-29T22:02:57.933Z,54.40
2019-03-29T22:05:24.717Z,54.20
2019-03-29T22:07:51.473Z,54.70
2019-03-29T22:10:18.234Z,54.60
2019-03-29T22:12:45.062Z,54.50
2019-03-29T22:15:13.323Z,54.80
2019-03-29T22:17:40.112Z,54.60
2019-03-29T22:20:08.229Z,54.70
2019-03-29T22:22:35.020Z,54.60
2019-03-29T22:25:03.102Z,54.60
2019-03-29T22:27:29.905Z,54.50
2019-03-29T22:29:56.686Z,54.40
2019-03-29T22:32:23.504Z,54.60
2019-03-29T22:34:50.279Z,54.50
2019-03-29T22:37:17.126Z,54.50
2019-03-29T22:39:43.936Z,54.50
2019-03-29T22:42:10.743Z,54.60
2019-03-29T22:44:37.592Z,54.50
2019-03-29T22:47:04.387Z,54.30
2019-03-29T22:49:31.186Z,54.60
2019-03-29T22:51:58.116Z,54.40
2019-03-29T22:54:24.920Z,54.80
2019-03-29T22:56:51.696Z,54.60
2019-03-29T22:59:18.542Z,54.40
2019-03-29T23:01:46.242Z,54.80
2019-03-29T23:04:13.096Z,54.80
2019-03-29T23:06:39.885Z,54.90
2019-03-29T23:09:07.089Z,54.50
2019-03-29T23:11:34.248Z,54.70
2019-03-29T23:14:01.046Z,54.40
2019-03-29T23:16:30.393Z,54.50
2019-03-29T23:19:06.507Z,54.40
2019-03-29T23:21:25.053Z,54.30
2019-03-29T23:23:52.693Z,54.50
2019-03-29T23:26:19.563Z,54.60
2019-03-29T23:28:46.376Z,54.60
2019-03-29T23:31:13.146Z,54.50
2019-03-29T23:33:40.022Z,54.80
2019-03-29T23:36:06.813Z,54.90
2019-03-29T23:38:33.607Z,55.20
2019-03-29T23:41:00.442Z,55.20
2019-03-29T23:43:27.232Z,55.40
2019-03-29T23:45:54.076Z,55.50
2019-03-29T23:48:20.861Z,55.40
2019-03-29T23:50:47.648Z,55.50
2019-03-29T23:53:14.484Z,55.40
2019-03-29T23:55:41.280Z,55.60
2019-03-29T23:58:08.082Z,55.50
